sensor_id;sensor_type;location;lat;lon;timestamp;temperature;humidity
75113;DHT22;63692;47.338;8.520;2023-04-09T04:46:44;4.60;99.90
75113;DHT22;63692;47.338;8.520;2023-04-09T05:31:35;5.10;99.90
75113;DHT22;63692;47.338;8.520;2023-04-09T05:34:01;5.20;99.90
75113;DHT22;63692;47.338;8.520;2023-04-09T05:38:54;5.20;99.90
75113;DHT22;63692;47.338;8.520;2023-04-09T05:43:48;5.40;99.90
75113;DHT22;63692;47.338;8.520;2023-04-09T05:46:14;5.40;99.90
75113;DHT22;63692;47.338;8.520;2023-04-09T05:48:39;5.60;99.90
75113;DHT22;63692;47.338;8.520;2023-04-09T05:53:32;5.60;99.90
75113;DHT22;63692;47.338;8.520;2023-04-09T06:10:44;6.10;99.90
75113;DHT22;63692;47.338;8.520;2023-04-09T06:20:33;6.40;99.90
75113;DHT22;63692;47.338;8.520;2023-04-09T06:22:59;6.40;99.90
75113;DHT22;63692;47.338;8.520;2023-04-09T06:40:24;6.90;99.90
75113;DHT22;63692;47.338;8.520;2023-04-09T06:42:50;7.00;99.90
75113;DHT22;63692;47.338;8.520;2023-04-09T06:45:16;7.00;99.90
75113;DHT22;63692;47.338;8.520;2023-04-09T06:47:42;7.00;99.90
75113;DHT22;63692;47.338;8.520;2023-04-09T06:50:07;7.10;99.90
75113;DHT22;63692;47.338;8.520;2023-04-09T06:52:33;7.10;99.90
75113;DHT22;63692;47.338;8.520;2023-04-09T06:54:59;7.10;99.90
75113;DHT22;63692;47.338;8.520;2023-04-09T06:57:25;7.10;99.90
75113;DHT22;63692;47.338;8.520;2023-04-09T06:59:50;7.10;99.90
75113;DHT22;63692;47.338;8.520;2023-04-09T07:02:16;7.20;99.90
75113;DHT22;63692;47.338;8.520;2023-04-09T07:04:42;7.20;99.90
75113;DHT22;63692;47.338;8.520;2023-04-09T07:07:07;7.20;99.90
75113;DHT22;63692;47.338;8.520;2023-04-09T07:09:33;7.30;99.90
75113;DHT22;63692;47.338;8.520;2023-04-09T07:11:59;7.30;99.90
75113;DHT22;63692;47.338;8.520;2023-04-09T07:14:24;7.40;99.90
75113;DHT22;63692;47.338;8.520;2023-04-09T07:16:50;7.50;99.90
75113;DHT22;63692;47.338;8.520;2023-04-09T07:29:13;7.60;99.90
75113;DHT22;63692;47.338;8.520;2023-04-09T07:31:39;7.60;99.90
75113;DHT22;63692;47.338;8.520;2023-04-09T07:34:04;7.60;99.90
75113;DHT22;63692;47.338;8.520;2023-04-09T07:36:30;7.60;99.90
75113;DHT22;63692;47.338;8.520;2023-04-09T07:38:56;7.60;99.90
75113;DHT22;63692;47.338;8.520;2023-04-09T07:41:21;7.70;99.90
75113;DHT22;63692;47.338;8.520;2023-04-09T07:43:47;7.70;99.90
75113;DHT22;63692;47.338;8.520;2023-04-09T07:46:21;7.80;99.90
75113;DHT22;63692;47.338;8.520;2023-04-09T07:48:48;7.90;99.90
75113;DHT22;63692;47.338;8.520;2023-04-09T07:51:14;7.90;99.90
75113;DHT22;63692;47.338;8.520;2023-04-09T07:53:40;8.00;99.90
75113;DHT22;63692;47.338;8.520;2023-04-09T07:56:05;8.00;99.90
75113;DHT22;63692;47.338;8.520;2023-04-09T07:58:31;8.00;99.90
75113;DHT22;63692;47.338;8.520;2023-04-09T08:00:57;8.10;99.90
75113;DHT22;63692;47.338;8.520;2023-04-09T08:03:22;8.20;99.90
75113;DHT22;63692;47.338;8.520;2023-04-09T08:05:48;8.20;99.90
75113;DHT22;63692;47.338;8.520;2023-04-09T08:08:13;8.20;99.90
75113;DHT22;63692;47.338;8.520;2023-04-09T08:10:39;8.30;99.90
75113;DHT22;63692;47.338;8.520;2023-04-09T08:13:05;8.20;99.90
75113;DHT22;63692;47.338;8.520;2023-04-09T08:15:30;8.20;99.90
75113;DHT22;63692;47.338;8.520;2023-04-09T08:17:58;8.30;99.90
75113;DHT22;63692;47.338;8.520;2023-04-09T08:20:23;8.40;99.90
75113;DHT22;63692;47.338;8.520;2023-04-09T08:22:49;8.50;99.90
75113;DHT22;63692;47.338;8.520;2023-04-09T08:25:14;8.50;99.90
75113;DHT22;63692;47.338;8.520;2023-04-09T08:27:40;8.60;99.90
75113;DHT22;63692;47.338;8.520;2023-04-09T08:30:06;8.50;99.90
75113;DHT22;63692;47.338;8.520;2023-04-09T08:32:32;8.50;99.90
75113;DHT22;63692;47.338;8.520;2023-04-09T08:34:59;8.50;99.90
75113;DHT22;63692;47.338;8.520;2023-04-09T08:37:25;8.50;99.90
75113;DHT22;63692;47.338;8.520;2023-04-09T08:39:51;8.50;99.90
75113;DHT22;63692;47.338;8.520;2023-04-09T08:42:17;8.50;99.90
75113;DHT22;63692;47.338;8.520;2023-04-09T08:44:43;8.50;99.90
75113;DHT22;63692;47.338;8.520;2023-04-09T08:47:09;8.50;99.90
75113;DHT22;63692;47.338;8.520;2023-04-09T08:49:38;8.60;99.90
75113;DHT22;63692;47.338;8.520;2023-04-09T08:52:04;8.60;99.90
75113;DHT22;63692;47.338;8.520;2023-04-09T08:54:31;8.70;99.90
75113;DHT22;63692;47.338;8.520;2023-04-09T08:56:57;8.70;99.90
75113;DHT22;63692;47.338;8.520;2023-04-09T08:59:23;8.80;99.90
75113;DHT22;63692;47.338;8.520;2023-04-09T09:01:49;8.80;99.90
75113;DHT22;63692;47.338;8.520;2023-04-09T09:04:43;8.90;99.90
75113;DHT22;63692;47.338;8.520;2023-04-09T09:07:10;8.90;99.90
75113;DHT22;63692;47.338;8.520;2023-04-09T09:09:49;8.90;99.90
75113;DHT22;63692;47.338;8.520;2023-04-09T09:12:33;9.00;99.90
75113;DHT22;63692;47.338;8.520;2023-04-09T09:15:00;9.00;99.90
75113;DHT22;63692;47.338;8.520;2023-04-09T09:17:25;8.90;99.90
75113;DHT22;63692;47.338;8.520;2023-04-09T09:19:51;8.90;99.90
75113;DHT22;63692;47.338;8.520;2023-04-09T09:22:16;8.90;99.90
75113;DHT22;63692;47.338;8.520;2023-04-09T09:24:47;8.90;99.90
75113;DHT22;63692;47.338;8.520;2023-04-09T09:27:30;9.00;99.90
75113;DHT22;63692;47.338;8.520;2023-04-09T09:29:56;9.00;99.90
75113;DHT22;63692;47.338;8.520;2023-04-09T09:32:22;9.00;99.90
75113;DHT22;63692;47.338;8.520;2023-04-09T09:35:05;9.00;99.90
75113;DHT22;63692;47.338;8.520;2023-04-09T09:37:32;9.00;99.90
75113;DHT22;63692;47.338;8.520;2023-04-09T09:39:58;9.00;99.90
75113;DHT22;63692;47.338;8.520;2023-04-09T09:42:24;9.10;99.90
75113;DHT22;63692;47.338;8.520;2023-04-09T09:44:55;9.10;99.90
75113;DHT22;63692;47.338;8.520;2023-04-09T09:47:21;9.10;99.90
75113;DHT22;63692;47.338;8.520;2023-04-09T09:49:50;9.20;99.90
75113;DHT22;63692;47.338;8.520;2023-04-09T09:52:24;9.20;99.90
75113;DHT22;63692;47.338;8.520;2023-04-09T09:54:54;9.30;99.90
75113;DHT22;63692;47.338;8.520;2023-04-09T09:57:24;9.30;99.90
75113;DHT22;63692;47.338;8.520;2023-04-09T10:00:00;9.40;99.90
75113;DHT22;63692;47.338;8.520;2023-04-09T10:02:27;9.50;99.90
75113;DHT22;63692;47.338;8.520;2023-04-09T10:22:36;9.40;99.90
75113;DHT22;63692;47.338;8.520;2023-04-09T10:25:04;9.50;99.90
75113;DHT22;63692;47.338;8.520;2023-04-09T10:27:31;9.50;99.90
75113;DHT22;63692;47.338;8.520;2023-04-09T10:29:56;9.50;99.20
75113;DHT22;63692;47.338;8.520;2023-04-09T10:32:24;9.50;98.60
75113;DHT22;63692;47.338;8.520;2023-04-09T10:34:57;9.50;98.10
75113;DHT22;63692;47.338;8.520;2023-04-09T10:37:25;9.50;98.10
75113;DHT22;63692;47.338;8.520;2023-04-09T10:39:51;9.50;98.50
75113;DHT22;63692;47.338;8.520;2023-04-09T10:42:20;9.50;98.50
75113;DHT22;63692;47.338;8.520;2023-04-09T10:47:33;9.60;97.90
75113;DHT22;63692;47.338;8.520;2023-04-09T10:50:23;9.60;98.40
75113;DHT22;63692;47.338;8.520;2023-04-09T10:52:56;9.70;98.30
75113;DHT22;63692;47.338;8.520;2023-04-09T10:58:07;9.70;98.60
75113;DHT22;63692;47.338;8.520;2023-04-09T11:00:39;9.70;98.20
75113;DHT22;63692;47.338;8.520;2023-04-09T11:03:18;9.80;97.90
75113;DHT22;63692;47.338;8.520;2023-04-09T11:05:59;9.80;98.10
75113;DHT22;63692;47.338;8.520;2023-04-09T11:08:30;9.90;98.10
75113;DHT22;63692;47.338;8.520;2023-04-09T11:10:56;9.90;98.20
75113;DHT22;63692;47.338;8.520;2023-04-09T11:13:26;10.00;98.20
75113;DHT22;63692;47.338;8.520;2023-04-09T11:15:54;10.10;98.30
75113;DHT22;63692;47.338;8.520;2023-04-09T11:18:22;10.20;97.30
75113;DHT22;63692;47.338;8.520;2023-04-09T11:20:48;10.20;96.80
75113;DHT22;63692;47.338;8.520;2023-04-09T11:23:15;10.20;96.50
75113;DHT22;63692;47.338;8.520;2023-04-09T11:25:41;10.30;98.00
75113;DHT22;63692;47.338;8.520;2023-04-09T11:28:07;10.20;96.50
75113;DHT22;63692;47.338;8.520;2023-04-09T11:30:34;10.30;96.10
75113;DHT22;63692;47.338;8.520;2023-04-09T11:33:00;10.20;96.00
75113;DHT22;63692;47.338;8.520;2023-04-09T11:35:26;10.30;95.90
75113;DHT22;63692;47.338;8.520;2023-04-09T11:37:52;10.30;96.10
75113;DHT22;63692;47.338;8.520;2023-04-09T11:40:23;10.40;95.90
75113;DHT22;63692;47.338;8.520;2023-04-09T11:42:51;10.40;96.30
75113;DHT22;63692;47.338;8.520;2023-04-09T11:45:18;10.60;96.40
75113;DHT22;63692;47.338;8.520;2023-04-09T11:47:44;10.70;95.00
75113;DHT22;63692;47.338;8.520;2023-04-09T11:50:12;10.80;95.30
75113;DHT22;63692;47.338;8.520;2023-04-09T11:52:38;10.80;94.10
75113;DHT22;63692;47.338;8.520;2023-04-09T11:55:06;10.90;94.60
75113;DHT22;63692;47.338;8.520;2023-04-09T12:00:09;10.90;94.50
75113;DHT22;63692;47.338;8.520;2023-04-09T12:02:37;11.00;94.50
75113;DHT22;63692;47.338;8.520;2023-04-09T12:05:03;11.10;94.00
75113;DHT22;63692;47.338;8.520;2023-04-09T12:07:33;11.20;94.40
75113;DHT22;63692;47.338;8.520;2023-04-09T12:10:06;11.20;94.40
75113;DHT22;63692;47.338;8.520;2023-04-09T12:12:42;11.20;94.20
75113;DHT22;63692;47.338;8.520;2023-04-09T12:15:22;11.20;92.40
75113;DHT22;63692;47.338;8.520;2023-04-09T12:17:53;11.30;91.60
75113;DHT22;63692;47.338;8.520;2023-04-09T12:20:51;11.30;91.80
75113;DHT22;63692;47.338;8.520;2023-04-09T12:23:17;11.30;92.80
75113;DHT22;63692;47.338;8.520;2023-04-09T12:25:43;11.30;92.20
75113;DHT22;63692;47.338;8.520;2023-04-09T12:28:14;11.40;94.80
75113;DHT22;63692;47.338;8.520;2023-04-09T12:30:41;11.50;92.90
75113;DHT22;63692;47.338;8.520;2023-04-09T12:33:07;11.50;91.20
75113;DHT22;63692;47.338;8.520;2023-04-09T12:35:33;11.60;91.80
75113;DHT22;63692;47.338;8.520;2023-04-09T12:37:59;11.70;93.40
75113;DHT22;63692;47.338;8.520;2023-04-09T12:40:25;11.60;92.20
75113;DHT22;63692;47.338;8.520;2023-04-09T12:42:51;11.60;91.50
75113;DHT22;63692;47.338;8.520;2023-04-09T12:45:18;11.60;91.00
75113;DHT22;63692;47.338;8.520;2023-04-09T12:47:44;11.60;90.00
75113;DHT22;63692;47.338;8.520;2023-04-09T12:50:11;11.70;89.60
75113;DHT22;63692;47.338;8.520;2023-04-09T12:52:38;11.80;90.30
75113;DHT22;63692;47.338;8.520;2023-04-09T12:55:05;11.90;88.40
75113;DHT22;63692;47.338;8.520;2023-04-09T12:57:31;12.00;92.30
75113;DHT22;63692;47.338;8.520;2023-04-09T12:59:58;12.00;89.30
75113;DHT22;63692;47.338;8.520;2023-04-09T13:02:23;12.30;87.70
75113;DHT22;63692;47.338;8.520;2023-04-09T13:04:50;12.40;87.50
75113;DHT22;63692;47.338;8.520;2023-04-09T13:07:17;12.50;84.20
75113;DHT22;63692;47.338;8.520;2023-04-09T13:09:47;12.60;82.90
75113;DHT22;63692;47.338;8.520;2023-04-09T13:12:15;12.60;83.60
75113;DHT22;63692;47.338;8.520;2023-04-09T13:14:42;12.70;89.90
75113;DHT22;63692;47.338;8.520;2023-04-09T13:17:08;12.80;82.70
75113;DHT22;63692;47.338;8.520;2023-04-09T13:19:34;12.90;83.30
75113;DHT22;63692;47.338;8.520;2023-04-09T13:21:59;12.90;86.60
75113;DHT22;63692;47.338;8.520;2023-04-09T13:24:25;13.10;81.20
75113;DHT22;63692;47.338;8.520;2023-04-09T13:26:51;13.10;83.20
75113;DHT22;63692;47.338;8.520;2023-04-09T13:29:18;13.20;84.70
75113;DHT22;63692;47.338;8.520;2023-04-09T13:31:44;13.10;83.80
75113;DHT22;63692;47.338;8.520;2023-04-09T13:34:09;13.00;80.10
75113;DHT22;63692;47.338;8.520;2023-04-09T13:36:35;13.10;82.00
75113;DHT22;63692;47.338;8.520;2023-04-09T13:39:00;13.10;83.30
75113;DHT22;63692;47.338;8.520;2023-04-09T13:41:32;13.10;82.80
75113;DHT22;63692;47.338;8.520;2023-04-09T13:43:59;13.20;82.80
75113;DHT22;63692;47.338;8.520;2023-04-09T13:46:25;13.30;86.70
75113;DHT22;63692;47.338;8.520;2023-04-09T13:48:50;13.40;83.00
75113;DHT22;63692;47.338;8.520;2023-04-09T13:51:16;13.60;87.30
75113;DHT22;63692;47.338;8.520;2023-04-09T13:53:42;13.70;83.40
75113;DHT22;63692;47.338;8.520;2023-04-09T13:56:07;13.90;78.60
75113;DHT22;63692;47.338;8.520;2023-04-09T13:58:33;14.10;82.60
75113;DHT22;63692;47.338;8.520;2023-04-09T14:00:59;14.30;79.20
75113;DHT22;63692;47.338;8.520;2023-04-09T14:03:25;14.30;77.60
75113;DHT22;63692;47.338;8.520;2023-04-09T14:05:51;14.40;82.00
75113;DHT22;63692;47.338;8.520;2023-04-09T14:08:17;14.50;80.60
75113;DHT22;63692;47.338;8.520;2023-04-09T14:10:42;14.80;76.80
75113;DHT22;63692;47.338;8.520;2023-04-09T14:13:08;14.90;79.00
75113;DHT22;63692;47.338;8.520;2023-04-09T14:15:36;15.10;74.00
75113;DHT22;63692;47.338;8.520;2023-04-09T14:18:02;15.30;74.40
75113;DHT22;63692;47.338;8.520;2023-04-09T14:20:28;15.60;74.10
75113;DHT22;63692;47.338;8.520;2023-04-09T14:22:53;15.90;69.70
75113;DHT22;63692;47.338;8.520;2023-04-09T14:25:19;16.30;69.00
75113;DHT22;63692;47.338;8.520;2023-04-09T14:27:45;16.70;66.90
75113;DHT22;63692;47.338;8.520;2023-04-09T14:30:12;17.60;70.40
75113;DHT22;63692;47.338;8.520;2023-04-09T14:32:38;19.90;61.80
75113;DHT22;63692;47.338;8.520;2023-04-09T14:35:04;22.10;53.60
75113;DHT22;63692;47.338;8.520;2023-04-09T14:37:30;23.60;50.70
75113;DHT22;63692;47.338;8.520;2023-04-09T14:39:56;25.00;46.00
75113;DHT22;63692;47.338;8.520;2023-04-09T14:42:22;26.00;43.20
75113;DHT22;63692;47.338;8.520;2023-04-09T14:44:47;26.40;41.80
75113;DHT22;63692;47.338;8.520;2023-04-09T14:47:13;26.10;37.70
75113;DHT22;63692;47.338;8.520;2023-04-09T14:49:39;26.50;34.50
75113;DHT22;63692;47.338;8.520;2023-04-09T14:52:05;27.10;37.70
75113;DHT22;63692;47.338;8.520;2023-04-09T14:54:31;27.40;34.60
75113;DHT22;63692;47.338;8.520;2023-04-09T14:56:57;27.50;34.30
75113;DHT22;63692;47.338;8.520;2023-04-09T14:59:23;27.50;32.80
75113;DHT22;63692;47.338;8.520;2023-04-09T15:01:50;27.10;34.80
75113;DHT22;63692;47.338;8.520;2023-04-09T15:04:15;27.00;37.30
75113;DHT22;63692;47.338;8.520;2023-04-09T15:06:41;26.40;36.50
75113;DHT22;63692;47.338;8.520;2023-04-09T15:09:07;26.10;36.00
75113;DHT22;63692;47.338;8.520;2023-04-09T15:11:32;26.20;35.20
75113;DHT22;63692;47.338;8.520;2023-04-09T15:13:58;26.10;36.00
75113;DHT22;63692;47.338;8.520;2023-04-09T15:16:25;26.00;34.00
75113;DHT22;63692;47.338;8.520;2023-04-09T15:18:52;25.90;36.90
75113;DHT22;63692;47.338;8.520;2023-04-09T15:21:19;25.50;35.10
75113;DHT22;63692;47.338;8.520;2023-04-09T15:23:45;25.10;32.90
75113;DHT22;63692;47.338;8.520;2023-04-09T15:26:11;25.00;33.90
75113;DHT22;63692;47.338;8.520;2023-04-09T15:28:37;25.00;33.70
75113;DHT22;63692;47.338;8.520;2023-04-09T15:31:04;25.00;32.50
75113;DHT22;63692;47.338;8.520;2023-04-09T15:33:29;24.90;33.20
75113;DHT22;63692;47.338;8.520;2023-04-09T15:35:57;24.90;33.50
75113;DHT22;63692;47.338;8.520;2023-04-09T15:38:23;24.90;32.40
75113;DHT22;63692;47.338;8.520;2023-04-09T15:40:50;24.90;32.90
75113;DHT22;63692;47.338;8.520;2023-04-09T15:43:16;24.70;32.30
75113;DHT22;63692;47.338;8.520;2023-04-09T15:45:43;24.40;33.50
75113;DHT22;63692;47.338;8.520;2023-04-09T15:48:08;24.50;34.10
75113;DHT22;63692;47.338;8.520;2023-04-09T15:50:34;23.20;33.20
75113;DHT22;63692;47.338;8.520;2023-04-09T15:53:00;23.60;33.40
75113;DHT22;63692;47.338;8.520;2023-04-09T15:55:26;23.70;33.20
75113;DHT22;63692;47.338;8.520;2023-04-09T15:57:52;23.50;33.90
75113;DHT22;63692;47.338;8.520;2023-04-09T16:00:19;23.70;32.60
75113;DHT22;63692;47.338;8.520;2023-04-09T16:02:47;23.70;33.30
75113;DHT22;63692;47.338;8.520;2023-04-09T16:05:13;23.70;32.70
75113;DHT22;63692;47.338;8.520;2023-04-09T16:07:38;23.40;32.60
75113;DHT22;63692;47.338;8.520;2023-04-09T16:10:05;23.40;34.50
75113;DHT22;63692;47.338;8.520;2023-04-09T16:12:30;23.30;34.80
75113;DHT22;63692;47.338;8.520;2023-04-09T16:14:57;23.30;34.70
75113;DHT22;63692;47.338;8.520;2023-04-09T16:17:22;23.20;34.40
75113;DHT22;63692;47.338;8.520;2023-04-09T16:19:48;22.50;34.00
75113;DHT22;63692;47.338;8.520;2023-04-09T16:22:14;22.50;35.00
75113;DHT22;63692;47.338;8.520;2023-04-09T16:24:39;22.50;34.90
75113;DHT22;63692;47.338;8.520;2023-04-09T16:27:05;22.00;35.40
75113;DHT22;63692;47.338;8.520;2023-04-09T16:29:31;21.50;36.40
75113;DHT22;63692;47.338;8.520;2023-04-09T16:31:56;20.70;37.10
75113;DHT22;63692;47.338;8.520;2023-04-09T16:34:22;20.00;38.80
75113;DHT22;63692;47.338;8.520;2023-04-09T16:36:48;19.40;39.40
75113;DHT22;63692;47.338;8.520;2023-04-09T16:39:15;18.40;40.70
75113;DHT22;63692;47.338;8.520;2023-04-09T16:41:41;17.90;42.40
75113;DHT22;63692;47.338;8.520;2023-04-09T16:44:07;17.20;43.70
75113;DHT22;63692;47.338;8.520;2023-04-09T16:46:33;17.00;44.50
75113;DHT22;63692;47.338;8.520;2023-04-09T16:48:58;16.80;45.60
75113;DHT22;63692;47.338;8.520;2023-04-09T16:51:24;16.60;45.70
75113;DHT22;63692;47.338;8.520;2023-04-09T16:53:50;16.40;47.00
75113;DHT22;63692;47.338;8.520;2023-04-09T16:56:15;16.30;47.20
75113;DHT22;63692;47.338;8.520;2023-04-09T16:58:41;16.20;47.80
75113;DHT22;63692;47.338;8.520;2023-04-09T17:01:07;16.00;47.40
75113;DHT22;63692;47.338;8.520;2023-04-09T17:03:32;15.90;47.50
75113;DHT22;63692;47.338;8.520;2023-04-09T17:05:58;15.70;47.80
75113;DHT22;63692;47.338;8.520;2023-04-09T17:08:24;15.60;48.30
75113;DHT22;63692;47.338;8.520;2023-04-09T17:10:50;15.40;48.40
75113;DHT22;63692;47.338;8.520;2023-04-09T17:13:16;15.30;47.90
75113;DHT22;63692;47.338;8.520;2023-04-09T17:15:42;15.10;48.10
75113;DHT22;63692;47.338;8.520;2023-04-09T17:18:08;14.90;49.00
75113;DHT22;63692;47.338;8.520;2023-04-09T17:20:33;14.80;49.60
75113;DHT22;63692;47.338;8.520;2023-04-09T17:22:59;14.50;49.80
75113;DHT22;63692;47.338;8.520;2023-04-09T17:25:26;14.40;49.50
75113;DHT22;63692;47.338;8.520;2023-04-09T17:27:52;14.30;50.00
75113;DHT22;63692;47.338;8.520;2023-04-09T17:30:18;14.30;49.90
75113;DHT22;63692;47.338;8.520;2023-04-09T17:32:44;14.30;49.80
75113;DHT22;63692;47.338;8.520;2023-04-09T17:35:10;14.10;50.50
75113;DHT22;63692;47.338;8.520;2023-04-09T17:37:36;14.10;50.90
75113;DHT22;63692;47.338;8.520;2023-04-09T17:40:03;13.90;51.10
75113;DHT22;63692;47.338;8.520;2023-04-09T17:42:29;13.90;51.30
75113;DHT22;63692;47.338;8.520;2023-04-09T17:44:54;13.80;51.10
75113;DHT22;63692;47.338;8.520;2023-04-09T17:47:20;13.70;51.40
75113;DHT22;63692;47.338;8.520;2023-04-09T17:49:46;13.40;54.30
75113;DHT22;63692;47.338;8.520;2023-04-09T17:52:12;13.20;55.20
75113;DHT22;63692;47.338;8.520;2023-04-09T17:54:39;12.90;59.00
75113;DHT22;63692;47.338;8.520;2023-04-09T17:57:05;12.50;61.20
75113;DHT22;63692;47.338;8.520;2023-04-09T17:59:31;12.30;62.10
75113;DHT22;63692;47.338;8.520;2023-04-09T18:01:57;12.10;64.30
75113;DHT22;63692;47.338;8.520;2023-04-09T18:04:23;12.00;63.60
75113;DHT22;63692;47.338;8.520;2023-04-09T18:06:49;11.90;63.70
75113;DHT22;63692;47.338;8.520;2023-04-09T18:09:15;11.90;64.90
75113;DHT22;63692;47.338;8.520;2023-04-09T18:11:41;11.80;65.30
75113;DHT22;63692;47.338;8.520;2023-04-09T18:14:07;11.70;65.20
75113;DHT22;63692;47.338;8.520;2023-04-09T18:16:36;11.60;66.80
75113;DHT22;63692;47.338;8.520;2023-04-09T18:19:03;11.60;67.00
75113;DHT22;63692;47.338;8.520;2023-04-09T18:21:29;11.40;68.10
75113;DHT22;63692;47.338;8.520;2023-04-09T18:23:58;11.40;69.70
75113;DHT22;63692;47.338;8.520;2023-04-09T18:26:24;11.40;69.60
75113;DHT22;63692;47.338;8.520;2023-04-09T18:28:49;11.30;72.20
75113;DHT22;63692;47.338;8.520;2023-04-09T18:31:16;11.20;71.40
75113;DHT22;63692;47.338;8.520;2023-04-09T18:33:45;11.00;70.80
75113;DHT22;63692;47.338;8.520;2023-04-09T18:36:11;10.90;73.00
75113;DHT22;63692;47.338;8.520;2023-04-09T18:38:36;10.90;71.30
75113;DHT22;63692;47.338;8.520;2023-04-09T18:41:02;10.90;71.60
75113;DHT22;63692;47.338;8.520;2023-04-09T18:43:28;10.90;72.00
75113;DHT22;63692;47.338;8.520;2023-04-09T18:45:55;10.90;71.70
75113;DHT22;63692;47.338;8.520;2023-04-09T18:48:21;10.60;72.50
75113;DHT22;63692;47.338;8.520;2023-04-09T18:50:47;10.50;72.90
75113;DHT22;63692;47.338;8.520;2023-04-09T19:05:54;10.20;76.70
75113;DHT22;63692;47.338;8.520;2023-04-09T19:08:20;10.10;76.40
75113;DHT22;63692;47.338;8.520;2023-04-09T19:47:41;9.40;82.90
